sensor_id;sensor_type;location;lat;lon;timestamp;P1;durP1;ratioP1;P2;durP2;ratioP2
15708;SDS011;7954;51.914;8.420;2022-10-03T00:00:00;7.60;;;2.93;;
15708;SDS011;7954;51.914;8.420;2022-10-03T00:02:38;5.67;;;2.40;;
15708;SDS011;7954;51.914;8.420;2022-10-03T00:05:23;7.30;;;3.07;;
15708;SDS011;7954;51.914;8.420;2022-10-03T00:08:03;7.73;;;3.53;;
15708;SDS011;7954;51.914;8.420;2022-10-03T00:10:45;9.17;;;3.33;;
15708;SDS011;7954;51.914;8.420;2022-10-03T00:13:23;8.00;;;3.00;;
15708;SDS011;7954;51.914;8.420;2022-10-03T00:16:03;10.77;;;4.20;;
15708;SDS011;7954;51.914;8.420;2022-10-03T00:18:39;7.67;;;4.03;;
15708;SDS011;7954;51.914;8.420;2022-10-03T00:21:21;8.93;;;5.10;;
15708;SDS011;7954;51.914;8.420;2022-10-03T00:24:08;7.23;;;3.80;;
15708;SDS011;7954;51.914;8.420;2022-10-03T00:26:45;10.30;;;3.50;;
15708;SDS011;7954;51.914;8.420;2022-10-03T00:29:22;7.90;;;2.80;;
15708;SDS011;7954;51.914;8.420;2022-10-03T00:32:06;6.03;;;2.40;;
15708;SDS011;7954;51.914;8.420;2022-10-03T00:34:47;7.33;;;2.80;;
15708;SDS011;7954;51.914;8.420;2022-10-03T00:37:29;6.13;;;2.50;;
15708;SDS011;7954;51.914;8.420;2022-10-03T00:40:17;5.83;;;2.47;;
15708;SDS011;7954;51.914;8.420;2022-10-03T00:43:07;4.60;;;2.40;;
15708;SDS011;7954;51.914;8.420;2022-10-03T00:52:22;5.00;;;3.53;;
15708;SDS011;7954;51.914;8.420;2022-10-03T00:55:05;7.90;;;4.07;;
15708;SDS011;7954;51.914;8.420;2022-10-03T00:57:47;8.20;;;3.90;;
15708;SDS011;7954;51.914;8.420;2022-10-03T01:00:27;8.27;;;3.80;;
15708;SDS011;7954;51.914;8.420;2022-10-03T01:03:03;7.90;;;3.73;;
15708;SDS011;7954;51.914;8.420;2022-10-03T01:05:49;10.37;;;3.50;;
15708;SDS011;7954;51.914;8.420;2022-10-03T01:11:44;3.80;;;2.50;;
15708;SDS011;7954;51.914;8.420;2022-10-03T01:14:31;8.80;;;3.23;;
15708;SDS011;7954;51.914;8.420;2022-10-03T01:17:17;6.87;;;2.67;;
15708;SDS011;7954;51.914;8.420;2022-10-03T01:19:58;5.50;;;2.27;;
15708;SDS011;7954;51.914;8.420;2022-10-03T01:22:43;4.50;;;2.43;;
15708;SDS011;7954;51.914;8.420;2022-10-03T01:25:29;5.70;;;2.27;;
15708;SDS011;7954;51.914;8.420;2022-10-03T01:28:13;9.83;;;4.30;;
15708;SDS011;7954;51.914;8.420;2022-10-03T01:31:07;5.93;;;2.80;;
15708;SDS011;7954;51.914;8.420;2022-10-03T01:33:41;5.67;;;2.50;;
15708;SDS011;7954;51.914;8.420;2022-10-03T01:36:13;6.23;;;2.80;;
15708;SDS011;7954;51.914;8.420;2022-10-03T01:38:48;5.90;;;2.20;;
15708;SDS011;7954;51.914;8.420;2022-10-03T01:41:25;3.97;;;2.00;;
15708;SDS011;7954;51.914;8.420;2022-10-03T01:44:01;3.80;;;2.03;;
15708;SDS011;7954;51.914;8.420;2022-10-03T01:46:41;3.80;;;2.00;;
15708;SDS011;7954;51.914;8.420;2022-10-03T01:49:16;4.60;;;2.40;;
15708;SDS011;7954;51.914;8.420;2022-10-03T01:51:51;8.87;;;2.93;;
15708;SDS011;7954;51.914;8.420;2022-10-03T01:54:28;3.67;;;2.43;;
15708;SDS011;7954;51.914;8.420;2022-10-03T01:57:09;3.67;;;2.33;;
15708;SDS011;7954;51.914;8.420;2022-10-03T01:59:47;5.10;;;2.00;;
15708;SDS011;7954;51.914;8.420;2022-10-03T02:02:24;3.50;;;2.20;;
15708;SDS011;7954;51.914;8.420;2022-10-03T02:04:58;4.70;;;2.40;;
15708;SDS011;7954;51.914;8.420;2022-10-03T02:07:35;4.57;;;2.50;;
15708;SDS011;7954;51.914;8.420;2022-10-03T02:10:11;5.43;;;2.60;;
15708;SDS011;7954;51.914;8.420;2022-10-03T02:12:47;4.00;;;2.40;;
15708;SDS011;7954;51.914;8.420;2022-10-03T02:15:23;4.40;;;2.53;;
15708;SDS011;7954;51.914;8.420;2022-10-03T02:17:59;3.80;;;2.30;;
15708;SDS011;7954;51.914;8.420;2022-10-03T02:20:40;3.90;;;2.03;;
15708;SDS011;7954;51.914;8.420;2022-10-03T02:23:21;6.03;;;2.40;;
15708;SDS011;7954;51.914;8.420;2022-10-03T02:25:56;3.27;;;1.93;;
15708;SDS011;7954;51.914;8.420;2022-10-03T02:28:35;5.63;;;3.07;;
15708;SDS011;7954;51.914;8.420;2022-10-03T02:40:45;2.90;;;2.10;;
15708;SDS011;7954;51.914;8.420;2022-10-03T02:43:30;3.33;;;2.17;;
15708;SDS011;7954;51.914;8.420;2022-10-03T02:46:32;5.30;;;2.30;;
15708;SDS011;7954;51.914;8.420;2022-10-03T02:55:31;4.37;;;2.10;;
15708;SDS011;7954;51.914;8.420;2022-10-03T03:07:31;3.40;;;2.27;;
15708;SDS011;7954;51.914;8.420;2022-10-03T03:10:32;3.77;;;1.90;;
15708;SDS011;7954;51.914;8.420;2022-10-03T03:13:36;3.90;;;2.23;;
15708;SDS011;7954;51.914;8.420;2022-10-03T03:16:45;3.33;;;1.80;;
15708;SDS011;7954;51.914;8.420;2022-10-03T03:22:44;2.13;;;1.73;;
15708;SDS011;7954;51.914;8.420;2022-10-03T03:25:34;2.80;;;1.63;;
15708;SDS011;7954;51.914;8.420;2022-10-03T03:28:16;2.40;;;1.70;;
15708;SDS011;7954;51.914;8.420;2022-10-03T03:31:00;3.93;;;1.90;;
15708;SDS011;7954;51.914;8.420;2022-10-03T03:33:40;3.43;;;1.73;;
15708;SDS011;7954;51.914;8.420;2022-10-03T03:36:21;4.30;;;1.80;;
15708;SDS011;7954;51.914;8.420;2022-10-03T03:39:00;3.60;;;1.57;;
15708;SDS011;7954;51.914;8.420;2022-10-03T03:41:45;3.77;;;1.80;;
15708;SDS011;7954;51.914;8.420;2022-10-03T03:44:26;6.13;;;2.07;;
15708;SDS011;7954;51.914;8.420;2022-10-03T03:47:15;5.33;;;2.20;;
15708;SDS011;7954;51.914;8.420;2022-10-03T03:50:03;5.20;;;1.97;;
15708;SDS011;7954;51.914;8.420;2022-10-03T03:52:45;3.57;;;1.87;;
15708;SDS011;7954;51.914;8.420;2022-10-03T03:55:32;4.23;;;2.00;;
15708;SDS011;7954;51.914;8.420;2022-10-03T03:58:29;3.23;;;2.10;;
15708;SDS011;7954;51.914;8.420;2022-10-03T04:01:06;7.00;;;2.43;;
15708;SDS011;7954;51.914;8.420;2022-10-03T04:03:45;2.77;;;1.87;;
15708;SDS011;7954;51.914;8.420;2022-10-03T04:06:23;4.97;;;1.93;;
15708;SDS011;7954;51.914;8.420;2022-10-03T04:11:57;6.07;;;2.30;;
15708;SDS011;7954;51.914;8.420;2022-10-03T04:17:35;5.80;;;2.20;;
15708;SDS011;7954;51.914;8.420;2022-10-03T04:20:44;8.60;;;2.30;;
15708;SDS011;7954;51.914;8.420;2022-10-03T04:23:25;6.83;;;2.73;;
15708;SDS011;7954;51.914;8.420;2022-10-03T04:26:17;4.30;;;2.40;;
15708;SDS011;7954;51.914;8.420;2022-10-03T04:28:58;3.43;;;1.90;;
15708;SDS011;7954;51.914;8.420;2022-10-03T04:31:54;4.30;;;1.87;;
15708;SDS011;7954;51.914;8.420;2022-10-03T04:34:32;3.87;;;2.13;;
15708;SDS011;7954;51.914;8.420;2022-10-03T04:37:20;5.43;;;2.00;;
15708;SDS011;7954;51.914;8.420;2022-10-03T04:39:53;4.47;;;2.63;;
15708;SDS011;7954;51.914;8.420;2022-10-03T04:42:37;4.20;;;2.17;;
15708;SDS011;7954;51.914;8.420;2022-10-03T04:45:18;4.07;;;2.10;;
15708;SDS011;7954;51.914;8.420;2022-10-03T04:48:03;5.37;;;2.13;;
15708;SDS011;7954;51.914;8.420;2022-10-03T04:50:39;4.30;;;2.10;;
15708;SDS011;7954;51.914;8.420;2022-10-03T04:53:18;8.50;;;3.03;;
15708;SDS011;7954;51.914;8.420;2022-10-03T04:55:52;5.53;;;2.63;;
15708;SDS011;7954;51.914;8.420;2022-10-03T04:58:25;6.40;;;2.73;;
15708;SDS011;7954;51.914;8.420;2022-10-03T05:01:02;5.80;;;2.70;;
15708;SDS011;7954;51.914;8.420;2022-10-03T05:03:42;5.03;;;2.50;;
15708;SDS011;7954;51.914;8.420;2022-10-03T05:06:22;7.33;;;3.37;;
15708;SDS011;7954;51.914;8.420;2022-10-03T05:09:00;4.57;;;2.63;;
15708;SDS011;7954;51.914;8.420;2022-10-03T05:11:41;5.30;;;2.70;;
15708;SDS011;7954;51.914;8.420;2022-10-03T05:14:19;8.03;;;3.57;;
15708;SDS011;7954;51.914;8.420;2022-10-03T05:16:54;8.60;;;3.37;;
15708;SDS011;7954;51.914;8.420;2022-10-03T05:19:41;8.97;;;3.57;;
15708;SDS011;7954;51.914;8.420;2022-10-03T05:22:21;6.80;;;3.30;;
15708;SDS011;7954;51.914;8.420;2022-10-03T05:25:00;5.93;;;3.40;;
15708;SDS011;7954;51.914;8.420;2022-10-03T05:27:41;6.83;;;3.03;;
15708;SDS011;7954;51.914;8.420;2022-10-03T05:30:18;7.93;;;3.23;;
15708;SDS011;7954;51.914;8.420;2022-10-03T05:32:53;7.13;;;3.77;;
15708;SDS011;7954;51.914;8.420;2022-10-03T05:35:41;6.70;;;3.00;;
15708;SDS011;7954;51.914;8.420;2022-10-03T05:38:34;7.30;;;3.50;;
15708;SDS011;7954;51.914;8.420;2022-10-03T05:41:19;12.17;;;3.67;;
15708;SDS011;7954;51.914;8.420;2022-10-03T05:43:55;6.50;;;3.27;;
15708;SDS011;7954;51.914;8.420;2022-10-03T05:46:40;5.80;;;3.10;;
15708;SDS011;7954;51.914;8.420;2022-10-03T05:52:29;7.43;;;3.30;;
15708;SDS011;7954;51.914;8.420;2022-10-03T05:55:16;8.13;;;3.40;;
15708;SDS011;7954;51.914;8.420;2022-10-03T06:04:04;7.47;;;4.00;;
15708;SDS011;7954;51.914;8.420;2022-10-03T06:06:49;8.50;;;3.50;;
15708;SDS011;7954;51.914;8.420;2022-10-03T06:09:37;9.60;;;4.50;;
15708;SDS011;7954;51.914;8.420;2022-10-03T06:12:20;8.70;;;4.20;;
15708;SDS011;7954;51.914;8.420;2022-10-03T06:14:56;10.90;;;5.87;;
15708;SDS011;7954;51.914;8.420;2022-10-03T06:18:02;7.27;;;5.20;;
15708;SDS011;7954;51.914;8.420;2022-10-03T06:20:54;8.27;;;4.97;;
15708;SDS011;7954;51.914;8.420;2022-10-03T06:27:10;7.20;;;4.10;;
15708;SDS011;7954;51.914;8.420;2022-10-03T06:30:03;6.57;;;4.57;;
15708;SDS011;7954;51.914;8.420;2022-10-03T06:32:48;8.03;;;4.00;;
15708;SDS011;7954;51.914;8.420;2022-10-03T06:35:40;7.67;;;4.07;;
15708;SDS011;7954;51.914;8.420;2022-10-03T06:51:16;9.07;;;4.43;;
15708;SDS011;7954;51.914;8.420;2022-10-03T06:54:07;7.33;;;3.70;;
15708;SDS011;7954;51.914;8.420;2022-10-03T06:56:59;6.70;;;3.90;;
15708;SDS011;7954;51.914;8.420;2022-10-03T07:02:51;10.17;;;5.20;;
15708;SDS011;7954;51.914;8.420;2022-10-03T07:09:04;6.87;;;4.07;;
15708;SDS011;7954;51.914;8.420;2022-10-03T07:12:14;7.57;;;3.83;;
15708;SDS011;7954;51.914;8.420;2022-10-03T07:18:21;8.60;;;3.50;;
15708;SDS011;7954;51.914;8.420;2022-10-03T07:24:08;7.33;;;3.63;;
15708;SDS011;7954;51.914;8.420;2022-10-03T07:26:59;8.17;;;4.00;;
15708;SDS011;7954;51.914;8.420;2022-10-03T07:29:49;7.63;;;4.10;;
15708;SDS011;7954;51.914;8.420;2022-10-03T07:32:36;6.07;;;3.30;;
15708;SDS011;7954;51.914;8.420;2022-10-03T07:35:34;7.77;;;4.27;;
15708;SDS011;7954;51.914;8.420;2022-10-03T07:44:44;6.47;;;4.07;;
15708;SDS011;7954;51.914;8.420;2022-10-03T07:50:49;8.60;;;4.60;;
15708;SDS011;7954;51.914;8.420;2022-10-03T07:56:33;6.80;;;3.90;;
15708;SDS011;7954;51.914;8.420;2022-10-03T07:59:29;7.80;;;4.47;;
15708;SDS011;7954;51.914;8.420;2022-10-03T08:02:22;7.60;;;4.13;;
15708;SDS011;7954;51.914;8.420;2022-10-03T08:05:21;7.03;;;4.10;;
15708;SDS011;7954;51.914;8.420;2022-10-03T08:08:08;7.33;;;4.10;;
15708;SDS011;7954;51.914;8.420;2022-10-03T08:11:01;7.47;;;4.10;;
15708;SDS011;7954;51.914;8.420;2022-10-03T08:13:49;7.23;;;3.87;;
15708;SDS011;7954;51.914;8.420;2022-10-03T08:16:37;9.03;;;4.20;;
15708;SDS011;7954;51.914;8.420;2022-10-03T08:19:21;8.80;;;4.20;;
15708;SDS011;7954;51.914;8.420;2022-10-03T08:22:04;6.60;;;3.83;;
15708;SDS011;7954;51.914;8.420;2022-10-03T08:30:54;13.00;;;4.23;;
15708;SDS011;7954;51.914;8.420;2022-10-03T08:33:45;6.73;;;3.17;;
15708;SDS011;7954;51.914;8.420;2022-10-03T08:39:25;7.37;;;4.13;;
15708;SDS011;7954;51.914;8.420;2022-10-03T08:45:31;4.77;;;2.70;;
15708;SDS011;7954;51.914;8.420;2022-10-03T08:51:23;5.53;;;3.43;;
15708;SDS011;7954;51.914;8.420;2022-10-03T08:54:15;6.23;;;3.37;;
15708;SDS011;7954;51.914;8.420;2022-10-03T08:57:10;7.13;;;3.50;;
15708;SDS011;7954;51.914;8.420;2022-10-03T09:00:00;6.93;;;4.03;;
15708;SDS011;7954;51.914;8.420;2022-10-03T09:02:38;7.37;;;3.80;;
15708;SDS011;7954;51.914;8.420;2022-10-03T09:12:58;6.73;;;3.13;;
15708;SDS011;7954;51.914;8.420;2022-10-03T09:15:59;6.93;;;2.97;;
15708;SDS011;7954;51.914;8.420;2022-10-03T09:19:04;6.30;;;3.50;;
15708;SDS011;7954;51.914;8.420;2022-10-03T09:28:03;8.47;;;5.87;;
15708;SDS011;7954;51.914;8.420;2022-10-03T09:30:54;8.37;;;5.57;;
15708;SDS011;7954;51.914;8.420;2022-10-03T09:33:42;6.03;;;3.63;;
15708;SDS011;7954;51.914;8.420;2022-10-03T09:36:49;7.50;;;4.17;;
15708;SDS011;7954;51.914;8.420;2022-10-03T09:42:47;7.70;;;4.37;;
15708;SDS011;7954;51.914;8.420;2022-10-03T09:45:46;7.77;;;4.97;;
15708;SDS011;7954;51.914;8.420;2022-10-03T09:48:31;8.73;;;5.90;;
15708;SDS011;7954;51.914;8.420;2022-10-03T09:57:45;5.93;;;3.67;;
15708;SDS011;7954;51.914;8.420;2022-10-03T10:00:28;4.60;;;2.60;;
15708;SDS011;7954;51.914;8.420;2022-10-03T10:03:13;4.70;;;2.40;;
15708;SDS011;7954;51.914;8.420;2022-10-03T10:06:21;5.90;;;2.50;;
15708;SDS011;7954;51.914;8.420;2022-10-03T10:12:01;6.50;;;3.37;;
15708;SDS011;7954;51.914;8.420;2022-10-03T10:14:44;6.07;;;2.67;;
15708;SDS011;7954;51.914;8.420;2022-10-03T10:17:38;6.53;;;3.20;;
15708;SDS011;7954;51.914;8.420;2022-10-03T10:20:33;7.50;;;3.20;;
15708;SDS011;7954;51.914;8.420;2022-10-03T10:23:20;4.57;;;2.97;;
15708;SDS011;7954;51.914;8.420;2022-10-03T10:26:13;6.60;;;2.83;;
15708;SDS011;7954;51.914;8.420;2022-10-03T10:29:08;4.60;;;2.67;;
15708;SDS011;7954;51.914;8.420;2022-10-03T10:38:22;5.07;;;2.73;;
15708;SDS011;7954;51.914;8.420;2022-10-03T10:41:16;3.33;;;2.00;;
15708;SDS011;7954;51.914;8.420;2022-10-03T10:44:29;3.07;;;1.80;;
15708;SDS011;7954;51.914;8.420;2022-10-03T10:56:26;3.57;;;2.07;;
15708;SDS011;7954;51.914;8.420;2022-10-03T11:02:39;5.33;;;2.73;;
15708;SDS011;7954;51.914;8.420;2022-10-03T11:05:37;5.60;;;2.73;;
15708;SDS011;7954;51.914;8.420;2022-10-03T11:08:26;5.73;;;2.73;;
15708;SDS011;7954;51.914;8.420;2022-10-03T11:11:29;6.23;;;3.50;;
15708;SDS011;7954;51.914;8.420;2022-10-03T11:30:18;3.90;;;1.70;;
15708;SDS011;7954;51.914;8.420;2022-10-03T11:39:07;3.67;;;2.30;;
15708;SDS011;7954;51.914;8.420;2022-10-03T11:41:45;6.27;;;2.17;;
15708;SDS011;7954;51.914;8.420;2022-10-03T11:44:16;4.43;;;1.97;;
15708;SDS011;7954;51.914;8.420;2022-10-03T11:46:51;2.67;;;1.50;;
15708;SDS011;7954;51.914;8.420;2022-10-03T11:49:28;2.87;;;1.60;;
15708;SDS011;7954;51.914;8.420;2022-10-03T11:52:11;4.27;;;1.77;;
15708;SDS011;7954;51.914;8.420;2022-10-03T11:54:57;2.87;;;1.70;;
15708;SDS011;7954;51.914;8.420;2022-10-03T11:57:35;4.23;;;1.90;;
15708;SDS011;7954;51.914;8.420;2022-10-03T12:00:09;3.83;;;1.70;;
15708;SDS011;7954;51.914;8.420;2022-10-03T12:03:01;3.80;;;2.03;;
15708;SDS011;7954;51.914;8.420;2022-10-03T12:05:45;3.20;;;1.70;;
15708;SDS011;7954;51.914;8.420;2022-10-03T12:08:42;3.93;;;2.00;;
15708;SDS011;7954;51.914;8.420;2022-10-03T12:11:25;4.73;;;1.97;;
15708;SDS011;7954;51.914;8.420;2022-10-03T12:14:00;4.33;;;1.83;;
15708;SDS011;7954;51.914;8.420;2022-10-03T12:16:44;3.47;;;1.80;;
15708;SDS011;7954;51.914;8.420;2022-10-03T12:19:26;2.23;;;1.67;;
15708;SDS011;7954;51.914;8.420;2022-10-03T12:21:59;4.50;;;1.57;;
15708;SDS011;7954;51.914;8.420;2022-10-03T12:24:35;4.40;;;1.67;;
15708;SDS011;7954;51.914;8.420;2022-10-03T12:27:10;3.83;;;1.50;;
15708;SDS011;7954;51.914;8.420;2022-10-03T12:29:50;2.40;;;1.47;;
15708;SDS011;7954;51.914;8.420;2022-10-03T12:35:20;2.70;;;1.70;;
15708;SDS011;7954;51.914;8.420;2022-10-03T12:38:01;3.50;;;1.67;;
15708;SDS011;7954;51.914;8.420;2022-10-03T12:40:46;3.33;;;1.73;;
15708;SDS011;7954;51.914;8.420;2022-10-03T12:43:29;3.63;;;1.90;;
15708;SDS011;7954;51.914;8.420;2022-10-03T12:46:12;4.53;;;1.77;;
15708;SDS011;7954;51.914;8.420;2022-10-03T12:48:44;2.50;;;1.37;;
15708;SDS011;7954;51.914;8.420;2022-10-03T12:51:18;4.23;;;1.67;;
15708;SDS011;7954;51.914;8.420;2022-10-03T12:53:58;2.60;;;1.47;;
15708;SDS011;7954;51.914;8.420;2022-10-03T12:56:38;3.93;;;2.07;;
15708;SDS011;7954;51.914;8.420;2022-10-03T12:59:17;3.67;;;2.00;;
15708;SDS011;7954;51.914;8.420;2022-10-03T13:04:55;3.10;;;1.83;;
15708;SDS011;7954;51.914;8.420;2022-10-03T13:07:40;3.60;;;2.00;;
15708;SDS011;7954;51.914;8.420;2022-10-03T13:10:21;2.33;;;1.30;;
15708;SDS011;7954;51.914;8.420;2022-10-03T13:13:00;3.10;;;1.53;;
15708;SDS011;7954;51.914;8.420;2022-10-03T13:15:43;3.97;;;1.80;;
15708;SDS011;7954;51.914;8.420;2022-10-03T13:18:35;2.83;;;1.43;;
15708;SDS011;7954;51.914;8.420;2022-10-03T13:21:14;4.00;;;1.83;;
15708;SDS011;7954;51.914;8.420;2022-10-03T13:24:07;2.87;;;1.27;;
15708;SDS011;7954;51.914;8.420;2022-10-03T13:26:49;3.53;;;1.50;;
15708;SDS011;7954;51.914;8.420;2022-10-03T13:29:25;3.80;;;1.73;;
15708;SDS011;7954;51.914;8.420;2022-10-03T13:32:06;4.87;;;2.17;;
15708;SDS011;7954;51.914;8.420;2022-10-03T13:34:55;2.93;;;1.47;;
15708;SDS011;7954;51.914;8.420;2022-10-03T13:41:14;4.40;;;1.80;;
15708;SDS011;7954;51.914;8.420;2022-10-03T13:43:55;2.70;;;1.50;;
15708;SDS011;7954;51.914;8.420;2022-10-03T13:46:28;3.37;;;1.50;;
15708;SDS011;7954;51.914;8.420;2022-10-03T13:49:03;3.27;;;1.50;;
15708;SDS011;7954;51.914;8.420;2022-10-03T13:51:45;4.30;;;1.63;;
15708;SDS011;7954;51.914;8.420;2022-10-03T13:54:21;3.03;;;1.30;;
15708;SDS011;7954;51.914;8.420;2022-10-03T13:57:09;3.23;;;1.60;;
15708;SDS011;7954;51.914;8.420;2022-10-03T13:59:50;3.70;;;1.60;;
15708;SDS011;7954;51.914;8.420;2022-10-03T14:05:34;3.57;;;1.60;;
15708;SDS011;7954;51.914;8.420;2022-10-03T14:08:21;2.67;;;1.30;;
15708;SDS011;7954;51.914;8.420;2022-10-03T14:17:07;3.60;;;1.60;;
15708;SDS011;7954;51.914;8.420;2022-10-03T14:19:44;2.40;;;1.57;;
15708;SDS011;7954;51.914;8.420;2022-10-03T14:22:26;3.73;;;1.50;;
15708;SDS011;7954;51.914;8.420;2022-10-03T14:25:06;4.13;;;1.80;;
15708;SDS011;7954;51.914;8.420;2022-10-03T14:27:48;3.17;;;1.63;;
15708;SDS011;7954;51.914;8.420;2022-10-03T14:30:20;4.13;;;1.73;;
15708;SDS011;7954;51.914;8.420;2022-10-03T14:32:55;4.33;;;1.83;;
15708;SDS011;7954;51.914;8.420;2022-10-03T14:35:34;3.60;;;1.70;;
15708;SDS011;7954;51.914;8.420;2022-10-03T14:41:19;3.47;;;1.50;;
15708;SDS011;7954;51.914;8.420;2022-10-03T14:43:51;3.73;;;1.60;;
15708;SDS011;7954;51.914;8.420;2022-10-03T14:46:22;2.30;;;1.40;;
15708;SDS011;7954;51.914;8.420;2022-10-03T14:48:54;2.97;;;1.80;;
15708;SDS011;7954;51.914;8.420;2022-10-03T14:51:25;3.13;;;1.40;;
15708;SDS011;7954;51.914;8.420;2022-10-03T14:54:01;4.13;;;1.60;;
15708;SDS011;7954;51.914;8.420;2022-10-03T14:56:33;2.60;;;1.80;;
15708;SDS011;7954;51.914;8.420;2022-10-03T14:59:11;4.13;;;1.60;;
15708;SDS011;7954;51.914;8.420;2022-10-03T15:01:45;3.37;;;1.57;;
15708;SDS011;7954;51.914;8.420;2022-10-03T15:04:16;5.20;;;2.00;;
15708;SDS011;7954;51.914;8.420;2022-10-03T15:06:53;3.50;;;1.87;;
15708;SDS011;7954;51.914;8.420;2022-10-03T15:09:25;3.00;;;1.40;;
15708;SDS011;7954;51.914;8.420;2022-10-03T15:12:03;4.97;;;2.53;;
15708;SDS011;7954;51.914;8.420;2022-10-03T15:14:35;4.27;;;2.30;;
15708;SDS011;7954;51.914;8.420;2022-10-03T15:17:06;4.60;;;2.47;;
15708;SDS011;7954;51.914;8.420;2022-10-03T15:19:44;4.27;;;2.10;;
15708;SDS011;7954;51.914;8.420;2022-10-03T15:22:20;4.60;;;1.70;;
15708;SDS011;7954;51.914;8.420;2022-10-03T15:24:55;3.00;;;1.80;;
15708;SDS011;7954;51.914;8.420;2022-10-03T15:27:29;6.53;;;2.50;;
15708;SDS011;7954;51.914;8.420;2022-10-03T15:29:58;3.10;;;1.63;;
15708;SDS011;7954;51.914;8.420;2022-10-03T15:32:28;5.13;;;1.83;;
15708;SDS011;7954;51.914;8.420;2022-10-03T15:35:02;3.47;;;1.70;;
15708;SDS011;7954;51.914;8.420;2022-10-03T15:37:32;3.10;;;1.70;;
15708;SDS011;7954;51.914;8.420;2022-10-03T15:40:19;4.30;;;2.03;;
15708;SDS011;7954;51.914;8.420;2022-10-03T15:42:52;5.93;;;2.20;;
15708;SDS011;7954;51.914;8.420;2022-10-03T15:45:30;5.23;;;2.23;;
15708;SDS011;7954;51.914;8.420;2022-10-03T15:48:03;3.67;;;2.17;;
15708;SDS011;7954;51.914;8.420;2022-10-03T15:50:33;3.17;;;1.77;;
15708;SDS011;7954;51.914;8.420;2022-10-03T15:53:06;4.47;;;1.80;;
15708;SDS011;7954;51.914;8.420;2022-10-03T15:56:00;3.93;;;2.37;;
15708;SDS011;7954;51.914;8.420;2022-10-03T15:58:34;3.87;;;1.73;;
15708;SDS011;7954;51.914;8.420;2022-10-03T16:01:06;3.87;;;1.80;;
15708;SDS011;7954;51.914;8.420;2022-10-03T16:03:39;4.73;;;2.20;;
15708;SDS011;7954;51.914;8.420;2022-10-03T16:06:16;2.37;;;1.87;;
15708;SDS011;7954;51.914;8.420;2022-10-03T16:08:51;3.17;;;1.97;;
15708;SDS011;7954;51.914;8.420;2022-10-03T16:11:25;4.67;;;2.23;;
15708;SDS011;7954;51.914;8.420;2022-10-03T16:14:00;3.80;;;2.40;;
15708;SDS011;7954;51.914;8.420;2022-10-03T16:16:38;3.97;;;2.40;;
15708;SDS011;7954;51.914;8.420;2022-10-03T16:22:15;3.37;;;1.97;;
15708;SDS011;7954;51.914;8.420;2022-10-03T16:24:56;4.23;;;2.23;;
15708;SDS011;7954;51.914;8.420;2022-10-03T16:27:30;3.80;;;2.03;;
15708;SDS011;7954;51.914;8.420;2022-10-03T16:30:12;3.67;;;1.80;;
15708;SDS011;7954;51.914;8.420;2022-10-03T16:32:45;3.17;;;1.80;;
15708;SDS011;7954;51.914;8.420;2022-10-03T16:35:24;3.23;;;2.50;;
15708;SDS011;7954;51.914;8.420;2022-10-03T16:37:58;3.17;;;2.30;;
15708;SDS011;7954;51.914;8.420;2022-10-03T16:40:28;4.47;;;2.10;;
15708;SDS011;7954;51.914;8.420;2022-10-03T16:42:57;4.47;;;2.07;;
15708;SDS011;7954;51.914;8.420;2022-10-03T16:45:35;4.03;;;2.33;;
15708;SDS011;7954;51.914;8.420;2022-10-03T16:48:09;2.33;;;1.80;;
15708;SDS011;7954;51.914;8.420;2022-10-03T16:50:56;3.70;;;1.90;;
15708;SDS011;7954;51.914;8.420;2022-10-03T16:53:26;3.53;;;1.83;;
15708;SDS011;7954;51.914;8.420;2022-10-03T16:55:56;5.27;;;2.63;;
15708;SDS011;7954;51.914;8.420;2022-10-03T16:58:31;4.87;;;2.33;;
15708;SDS011;7954;51.914;8.420;2022-10-03T17:01:05;3.73;;;2.00;;
15708;SDS011;7954;51.914;8.420;2022-10-03T17:03:54;3.57;;;2.17;;
15708;SDS011;7954;51.914;8.420;2022-10-03T17:06:27;5.37;;;2.03;;
15708;SDS011;7954;51.914;8.420;2022-10-03T17:08:58;3.13;;;1.87;;
15708;SDS011;7954;51.914;8.420;2022-10-03T17:11:29;3.87;;;2.00;;
15708;SDS011;7954;51.914;8.420;2022-10-03T17:14:04;2.37;;;1.70;;
15708;SDS011;7954;51.914;8.420;2022-10-03T17:16:35;4.33;;;2.27;;
15708;SDS011;7954;51.914;8.420;2022-10-03T17:19:14;4.97;;;3.90;;
15708;SDS011;7954;51.914;8.420;2022-10-03T17:21:49;5.23;;;3.30;;
15708;SDS011;7954;51.914;8.420;2022-10-03T17:24:21;5.50;;;2.20;;
15708;SDS011;7954;51.914;8.420;2022-10-03T17:26:57;5.17;;;2.23;;
15708;SDS011;7954;51.914;8.420;2022-10-03T17:29:33;3.23;;;1.90;;
15708;SDS011;7954;51.914;8.420;2022-10-03T17:32:10;2.53;;;1.80;;
15708;SDS011;7954;51.914;8.420;2022-10-03T17:34:42;3.47;;;1.60;;
15708;SDS011;7954;51.914;8.420;2022-10-03T17:37:16;3.90;;;2.00;;
15708;SDS011;7954;51.914;8.420;2022-10-03T17:39:58;3.80;;;2.00;;
15708;SDS011;7954;51.914;8.420;2022-10-03T17:42:35;3.70;;;2.00;;
15708;SDS011;7954;51.914;8.420;2022-10-03T17:45:22;4.47;;;2.20;;
15708;SDS011;7954;51.914;8.420;2022-10-03T17:47:59;3.63;;;2.00;;
15708;SDS011;7954;51.914;8.420;2022-10-03T17:50:34;2.73;;;1.80;;
15708;SDS011;7954;51.914;8.420;2022-10-03T17:53:10;5.43;;;2.00;;
15708;SDS011;7954;51.914;8.420;2022-10-03T17:55:45;5.80;;;2.30;;
15708;SDS011;7954;51.914;8.420;2022-10-03T17:58:17;4.73;;;2.10;;
15708;SDS011;7954;51.914;8.420;2022-10-03T18:00:56;3.77;;;2.20;;
15708;SDS011;7954;51.914;8.420;2022-10-03T18:03:31;5.93;;;2.70;;
15708;SDS011;7954;51.914;8.420;2022-10-03T18:09:23;4.73;;;2.40;;
15708;SDS011;7954;51.914;8.420;2022-10-03T18:12:07;5.23;;;2.60;;
15708;SDS011;7954;51.914;8.420;2022-10-03T18:14:45;4.77;;;2.30;;
15708;SDS011;7954;51.914;8.420;2022-10-03T18:17:23;5.70;;;2.90;;
15708;SDS011;7954;51.914;8.420;2022-10-03T18:20:04;4.60;;;2.23;;
15708;SDS011;7954;51.914;8.420;2022-10-03T18:22:46;4.27;;;2.80;;
15708;SDS011;7954;51.914;8.420;2022-10-03T18:25:22;3.27;;;2.97;;
15708;SDS011;7954;51.914;8.420;2022-10-03T18:28:33;5.40;;;3.23;;
15708;SDS011;7954;51.914;8.420;2022-10-03T18:31:07;5.80;;;3.70;;
15708;SDS011;7954;51.914;8.420;2022-10-03T18:33:42;5.20;;;3.80;;
15708;SDS011;7954;51.914;8.420;2022-10-03T18:36:17;6.90;;;3.70;;
15708;SDS011;7954;51.914;8.420;2022-10-03T18:38:47;4.70;;;3.50;;
15708;SDS011;7954;51.914;8.420;2022-10-03T18:41:18;4.30;;;3.63;;
15708;SDS011;7954;51.914;8.420;2022-10-03T18:43:50;5.87;;;4.07;;
15708;SDS011;7954;51.914;8.420;2022-10-03T18:46:24;5.90;;;3.63;;
15708;SDS011;7954;51.914;8.420;2022-10-03T18:49:01;5.90;;;3.83;;
15708;SDS011;7954;51.914;8.420;2022-10-03T18:51:54;4.60;;;3.60;;
15708;SDS011;7954;51.914;8.420;2022-10-03T18:54:29;5.63;;;3.77;;
15708;SDS011;7954;51.914;8.420;2022-10-03T18:57:05;4.87;;;3.10;;
15708;SDS011;7954;51.914;8.420;2022-10-03T18:59:41;3.77;;;3.23;;
15708;SDS011;7954;51.914;8.420;2022-10-03T19:02:15;4.17;;;3.20;;
15708;SDS011;7954;51.914;8.420;2022-10-03T19:04:51;5.07;;;3.23;;
15708;SDS011;7954;51.914;8.420;2022-10-03T19:07:23;3.80;;;3.40;;
15708;SDS011;7954;51.914;8.420;2022-10-03T19:10:15;5.43;;;3.50;;
15708;SDS011;7954;51.914;8.420;2022-10-03T19:12:53;3.93;;;3.17;;
15708;SDS011;7954;51.914;8.420;2022-10-03T19:15:33;4.90;;;3.73;;
15708;SDS011;7954;51.914;8.420;2022-10-03T19:18:15;6.00;;;4.30;;
15708;SDS011;7954;51.914;8.420;2022-10-03T19:20:50;6.27;;;4.83;;
15708;SDS011;7954;51.914;8.420;2022-10-03T19:23:22;6.67;;;5.27;;
15708;SDS011;7954;51.914;8.420;2022-10-03T19:25:54;8.80;;;5.87;;
15708;SDS011;7954;51.914;8.420;2022-10-03T19:28:24;7.33;;;5.80;;
15708;SDS011;7954;51.914;8.420;2022-10-03T19:30:57;8.13;;;6.83;;
15708;SDS011;7954;51.914;8.420;2022-10-03T19:33:30;6.97;;;5.83;;
15708;SDS011;7954;51.914;8.420;2022-10-03T19:36:05;7.07;;;5.77;;
15708;SDS011;7954;51.914;8.420;2022-10-03T19:38:42;5.67;;;4.47;;
15708;SDS011;7954;51.914;8.420;2022-10-03T19:41:14;5.27;;;4.37;;
15708;SDS011;7954;51.914;8.420;2022-10-03T19:43:52;5.67;;;4.33;;
15708;SDS011;7954;51.914;8.420;2022-10-03T19:49:18;6.03;;;4.63;;
15708;SDS011;7954;51.914;8.420;2022-10-03T19:52:20;4.53;;;3.87;;
15708;SDS011;7954;51.914;8.420;2022-10-03T19:54:52;4.17;;;3.77;;